Time;durP1;ratioP1;P1;durP2;ratioP2;P2;SDS_P1;SDS_P2;PMS_P1;PMS_P2;Temp;Humidity;BMP_temperature;BMP_pressure;BME280_temperature;BME280_humidity;BME280_pressure;Samples;Min_cycle;Max_cycle;Signal;HPM_P1;HPM_P2
2021/12/07 00:01:50;;;;;;;1.20;1.20;;;3.30;99.90;;;;;;6265087;22;20193;-92
2021/12/07 00:04:16;;;;;;;3.20;2.20;;;3.30;99.90;;;;;;6214610;23;20197;-90
2021/12/07 00:06:42;;;;;;;3.17;2.03;;;3.30;99.90;;;;;;6265156;22;20203;-90
2021/12/07 00:09:12;;;;;;;1.97;1.70;;;3.40;99.90;;;;;;6241025;22;20161;-89
2021/12/07 00:11:38;;;;;;;1.80;1.70;;;3.40;99.90;;;;;;6265684;22;20197;-90
2021/12/07 00:14:12;;;;;;;1.73;1.63;;;3.40;99.90;;;;;;6265706;22;20197;-90
2021/12/07 00:16:39;;;;;;;1.40;1.33;;;3.40;99.90;;;;;;6241403;22;20607;-90
2021/12/07 00:19:06;;;;;;;4.63;1.53;;;3.40;99.90;;;;;;6265558;22;20252;-91
2021/12/07 00:21:32;;;;;;;2.10;0.87;;;3.40;99.90;;;;;;6241530;22;20164;-89
2021/12/07 00:23:58;;;;;;;2.57;2.37;;;3.30;99.90;;;;;;6240148;22;20197;-90
2021/12/07 00:26:24;;;;;;;3.27;3.00;;;3.20;99.90;;;;;;6215934;23;20200;-90
2021/12/07 00:28:50;;;;;;;3.07;1.70;;;3.20;99.90;;;;;;6214654;23;20192;-91
2021/12/07 00:31:30;;;;;;;0.70;0.63;;;3.10;99.90;;;;;;6240869;22;20641;-90
2021/12/07 00:36:45;;;;;;;2.07;1.97;;;3.10;99.90;;;;;;6241241;22;20145;-90
2021/12/07 00:39:13;;;;;;;1.77;1.53;;;3.00;99.90;;;;;;6266168;22;20174;-90
2021/12/07 00:41:39;;;;;;;1.03;1.03;;;3.00;99.90;;;;;;6265555;22;20197;-90
2021/12/07 00:44:05;;;;;;;2.40;1.30;;;3.00;99.90;;;;;;6214957;23;20284;-91
2021/12/07 00:46:32;;;;;;;2.00;1.80;;;2.90;99.90;;;;;;6240580;22;20193;-91
2021/12/07 00:49:01;;;;;;;1.30;1.30;;;2.90;99.90;;;;;;6239931;22;20213;-90
2021/12/07 00:51:26;;;;;;;2.00;1.60;;;2.90;99.90;;;;;;6266399;22;20154;-90
2021/12/07 00:53:53;;;;;;;1.80;0.90;;;2.80;99.90;;;;;;6215059;22;20397;-90
2021/12/07 00:56:19;;;;;;;1.07;1.07;;;2.80;99.90;;;;;;6215274;23;20305;-90
2021/12/07 00:58:45;;;;;;;1.37;1.03;;;2.80;99.90;;;;;;6215071;22;20209;-90
2021/12/07 01:01:15;;;;;;;1.33;1.23;;;2.80;99.90;;;;;;6240694;22;20212;-90
2021/12/07 01:03:42;;;;;;;1.20;1.20;;;2.70;99.90;;;;;;6265824;22;20181;-89
2021/12/07 01:07:24;;;;;;;1.70;1.17;;;2.80;99.90;;;;;;6266288;22;20250;-90
2021/12/07 01:09:28;;;;;;;1.93;0.90;;;2.70;99.90;;;;;;6239461;22;20190;-88
2021/12/07 01:25:45;;;;;;;1.70;1.60;;;2.90;99.90;;;;;;6242643;23;20197;-91
2021/12/07 01:28:29;;;;;;;3.60;1.23;;;2.90;99.90;;;;;;6266949;22;20193;-91
2021/12/07 01:41:25;;;;;;;0.93;0.93;;;2.80;99.90;;;;;;6239378;22;20205;-90
2021/12/07 01:44:07;;;;;;;1.17;1.00;;;2.90;99.90;;;;;;6222161;22;20193;-91
2021/12/07 01:52:06;;;;;;;1.53;1.43;;;3.00;99.90;;;;;;6241162;22;20208;-90
2021/12/07 02:00:08;;;;;;;1.73;1.47;;;3.10;99.90;;;;;;6241474;23;20649;-90
2021/12/07 02:02:34;;;;;;;5.87;2.30;;;3.20;99.90;;;;;;6266449;22;20297;-89
2021/12/07 02:05:00;;;;;;;1.73;1.63;;;3.20;99.90;;;;;;6240716;22;20220;-91
2021/12/07 02:07:27;;;;;;;2.20;2.10;;;3.30;99.90;;;;;;6265563;22;20659;-91
2021/12/07 02:09:56;;;;;;;0.67;0.67;;;3.30;99.90;;;;;;6215297;22;20708;-91
2021/12/07 02:12:23;;;;;;;2.30;1.47;;;3.50;99.90;;;;;;6265666;22;20142;-91
2021/12/07 02:14:49;;;;;;;2.47;2.27;;;3.60;99.90;;;;;;6214684;23;20303;-91
2021/12/07 02:17:20;;;;;;;2.43;2.33;;;3.50;99.90;;;;;;6214146;23;20288;-91
2021/12/07 02:19:46;;;;;;;1.77;1.67;;;3.50;99.90;;;;;;6265663;22;20278;-91
2021/12/07 02:22:12;;;;;;;0.77;0.77;;;3.50;99.90;;;;;;6240641;23;20272;-91
2021/12/07 02:24:39;;;;;;;1.10;0.77;;;3.50;99.90;;;;;;6241005;22;20445;-91
2021/12/07 02:27:07;;;;;;;1.43;1.33;;;3.50;99.90;;;;;;6265985;22;20723;-91
2021/12/07 02:29:32;;;;;;;0.80;0.80;;;3.50;99.90;;;;;;6240176;22;20235;-91
2021/12/07 02:32:00;;;;;;;2.33;1.43;;;3.50;99.90;;;;;;6214063;23;20213;-90
2021/12/07 02:34:26;;;;;;;1.07;1.07;;;3.50;99.90;;;;;;6215521;22;20197;-90
2021/12/07 02:36:54;;;;;;;2.67;2.47;;;3.40;99.90;;;;;;6214361;22;20176;-92
2021/12/07 02:39:29;;;;;;;1.67;1.57;;;3.50;99.90;;;;;;6265659;22;20188;-91
2021/12/07 02:41:55;;;;;;;1.37;0.97;;;3.40;99.90;;;;;;6264999;22;20525;-90
2021/12/07 02:44:21;;;;;;;2.27;1.97;;;3.50;99.90;;;;;;6239610;22;20201;-91
2021/12/07 02:46:46;;;;;;;1.50;1.00;;;3.40;99.90;;;;;;6214828;23;20189;-90
2021/12/07 02:49:12;;;;;;;2.77;2.50;;;3.40;99.90;;;;;;6214340;23;20197;-91
2021/12/07 02:51:38;;;;;;;1.70;1.60;;;3.40;99.90;;;;;;6240483;22;20485;-90
2021/12/07 02:54:04;;;;;;;1.17;1.03;;;3.40;99.90;;;;;;6214878;23;20196;-90
2021/12/07 02:56:30;;;;;;;1.87;1.77;;;3.40;99.90;;;;;;6214698;23;20221;-90
2021/12/07 02:59:00;;;;;;;1.50;1.40;;;3.40;99.90;;;;;;6239577;22;21095;-91
2021/12/07 03:01:31;;;;;;;1.07;1.00;;;3.30;99.90;;;;;;6240857;22;20200;-90
2021/12/07 03:04:14;;;;;;;0.70;0.70;;;3.30;99.90;;;;;;6241090;22;25759;-90
2021/12/07 03:07:43;;;;;;;1.27;1.23;;;3.40;99.90;;;;;;6222219;22;20149;-91
2021/12/07 03:28:25;;;;;;;1.17;1.13;;;4.30;99.90;;;;;;6239401;23;20248;-90
2021/12/07 03:30:51;;;;;;;2.50;0.80;;;4.30;99.90;;;;;;6239375;22;20158;-91
2021/12/07 03:33:17;;;;;;;0.50;0.50;;;4.30;99.90;;;;;;6214139;23;20201;-91
2021/12/07 03:35:43;;;;;;;0.37;0.37;;;4.30;99.90;;;;;;6189100;23;20711;-90
2021/12/07 03:38:10;;;;;;;0.97;0.83;;;4.30;99.90;;;;;;6213866;22;20201;-91
2021/12/07 03:40:36;;;;;;;1.53;1.50;;;4.30;99.90;;;;;;6239313;22;20207;-91
2021/12/07 03:43:03;;;;;;;0.30;0.30;;;4.30;99.90;;;;;;6238938;22;20204;-90
2021/12/07 03:45:29;;;;;;;2.20;1.93;;;4.30;99.90;;;;;;6239879;22;20599;-91
2021/12/07 03:47:56;;;;;;;1.47;1.27;;;4.40;99.90;;;;;;6213763;23;20323;-91
2021/12/07 03:50:22;;;;;;;22.23;2.50;;;4.40;99.90;;;;;;6264203;22;20193;-91
2021/12/07 03:52:50;;;;;;;2.50;1.30;;;4.50;99.90;;;;;;6239341;22;20216;-91
2021/12/07 03:55:16;;;;;;;1.60;1.13;;;4.50;99.90;;;;;;6264181;22;20197;-91
2021/12/07 03:57:42;;;;;;;1.23;1.17;;;4.50;99.90;;;;;;6264557;22;20180;-91
2021/12/07 04:00:12;;;;;;;3.03;1.57;;;4.60;99.90;;;;;;6239765;22;21017;-90
2021/12/07 04:02:40;;;;;;;1.37;1.27;;;4.60;99.90;;;;;;6264219;22;20220;-90
2021/12/07 04:05:14;;;;;;;0.70;0.70;;;4.70;99.90;;;;;;6214073;22;20197;-91
2021/12/07 04:07:41;;;;;;;1.47;1.30;;;4.80;99.90;;;;;;6264153;22;20200;-91
2021/12/07 04:10:10;;;;;;;2.60;1.70;;;4.90;99.90;;;;;;6264091;22;20192;-91
2021/12/07 04:12:36;;;;;;;0.67;0.60;;;5.00;99.90;;;;;;6265066;22;20674;-90
2021/12/07 04:15:04;;;;;;;0.60;0.60;;;5.10;99.90;;;;;;6264840;22;20189;-91
2021/12/07 04:17:30;;;;;;;3.90;1.17;;;5.20;99.90;;;;;;6264146;22;20197;-91
2021/12/07 04:19:56;;;;;;;2.63;0.90;;;5.30;99.90;;;;;;6238742;22;20208;-90
2021/12/07 04:22:22;;;;;;;0.67;0.67;;;5.20;99.90;;;;;;6238763;22;20718;-90
2021/12/07 04:24:48;;;;;;;0.93;0.60;;;5.30;99.90;;;;;;6239031;22;20161;-90
2021/12/07 04:27:14;;;;;;;0.20;0.20;;;5.40;99.90;;;;;;6214649;23;20470;-91
2021/12/07 04:29:39;;;;;;;0.30;0.30;;;5.40;99.90;;;;;;6214074;23;20197;-90
2021/12/07 04:32:06;;;;;;;0.30;0.30;;;5.40;99.90;;;;;;6238999;23;20212;-90
2021/12/07 04:34:32;;;;;;;0.47;0.47;;;5.40;99.90;;;;;;6239795;23;20275;-90
2021/12/07 04:36:58;;;;;;;0.27;0.27;;;5.30;99.90;;;;;;6215251;22;20205;-88
2021/12/07 04:39:24;;;;;;;2.00;1.07;;;5.30;99.90;;;;;;6239963;23;20177;-90
2021/12/07 04:41:51;;;;;;;0.23;0.23;;;5.30;99.90;;;;;;6215163;23;20254;-90
2021/12/07 04:44:17;;;;;;;0.20;0.20;;;5.30;99.90;;;;;;6215118;22;20197;-89
2021/12/07 04:46:59;;;;;;;0.33;0.33;;;5.40;99.90;;;;;;6239499;23;20246;-90
2021/12/07 04:57:50;;;;;;;0.20;0.20;;;5.80;99.90;;;;;;6219488;23;20156;-88
2021/12/07 05:00:24;;;;;;;0.50;0.50;;;5.80;99.90;;;;;;6222766;22;20197;-91
2021/12/07 05:03:02;;;;;;;0.63;0.63;;;5.90;99.90;;;;;;6265724;22;20189;-90
2021/12/07 05:05:40;;;;;;;0.37;0.37;;;6.00;99.90;;;;;;6242715;22;20279;-89
2021/12/07 05:08:09;;;;;;;0.20;0.20;;;6.00;99.90;;;;;;6242660;22;20197;-90
2021/12/07 05:13:26;;;;;;;2.93;1.33;;;6.00;99.90;;;;;;6241285;22;20193;-91
2021/12/07 05:37:53;;;;;;;0.10;0.10;;;6.10;99.90;;;;;;6222639;23;20564;-89
2021/12/07 05:40:27;;;;;;;0.10;0.10;;;6.10;99.90;;;;;;6270861;22;20205;-90
2021/12/07 05:42:54;;;;;;;0.97;0.97;;;6.20;99.90;;;;;;6245475;22;20241;-89
2021/12/07 05:45:32;;;;;;;0.50;0.50;;;6.20;99.90;;;;;;6245754;23;20475;-90
2021/12/07 05:48:00;;;;;;;0.97;0.70;;;6.30;99.90;;;;;;6269836;22;20228;-90
2021/12/07 05:50:27;;;;;;;0.20;0.20;;;6.20;99.90;;;;;;6269504;22;20201;-91
2021/12/07 05:52:54;;;;;;;0.20;0.20;;;6.20;99.90;;;;;;6270039;22;20197;-90
2021/12/07 05:55:20;;;;;;;2.73;0.50;;;6.20;99.90;;;;;;6244655;22;20192;-89
2021/12/07 05:57:49;;;;;;;1.93;0.97;;;6.10;99.90;;;;;;6244695;22;20161;-90
2021/12/07 06:00:24;;;;;;;0.30;0.30;;;6.10;99.90;;;;;;6221260;23;20189;-90
2021/12/07 06:02:58;;;;;;;5.40;0.30;;;6.10;99.90;;;;;;6269886;22;20200;-90
2021/12/07 06:05:25;;;;;;;0.20;0.20;;;6.10;99.90;;;;;;6243554;22;20592;-90
2021/12/07 06:07:51;;;;;;;0.60;0.60;;;6.20;99.90;;;;;;6242598;22;20192;-89
2021/12/07 06:10:18;;;;;;;0.43;0.30;;;6.20;99.90;;;;;;6268089;22;20189;-88
2021/12/07 06:12:44;;;;;;;0.53;0.53;;;6.20;99.90;;;;;;6241693;22;20157;-90
2021/12/07 06:15:12;;;;;;;0.20;0.20;;;6.20;99.90;;;;;;6243667;22;20156;-91
2021/12/07 06:17:38;;;;;;;3.77;1.93;;;6.20;99.90;;;;;;6220117;22;20291;-91
2021/12/07 06:20:05;;;;;;;1.57;1.27;;;6.20;99.90;;;;;;6218006;23;20233;-91
2021/12/07 06:22:32;;;;;;;6.17;3.00;;;6.20;99.90;;;;;;6241153;22;20213;-89
2021/12/07 06:24:57;;;;;;;2.87;1.90;;;6.10;99.90;;;;;;6241852;22;20272;-89
2021/12/07 06:27:23;;;;;;;1.30;1.30;;;6.10;99.90;;;;;;6216580;23;20185;-90
2021/12/07 06:29:49;;;;;;;13.63;5.93;;;6.00;99.90;;;;;;6240282;23;20201;-90
2021/12/07 06:32:15;;;;;;;11.60;5.70;;;5.90;99.90;;;;;;6264584;22;20227;-90
2021/12/07 06:34:41;;;;;;;0.83;0.83;;;5.90;99.90;;;;;;6215258;23;20194;-90
2021/12/07 06:37:07;;;;;;;4.97;4.57;;;5.90;99.90;;;;;;6214683;23;20497;-91
2021/12/07 06:39:34;;;;;;;4.20;2.37;;;5.80;99.90;;;;;;6216427;22;20189;-91
2021/12/07 06:42:02;;;;;;;5.00;3.53;;;5.70;99.90;;;;;;6241629;23;20189;-91
2021/12/07 06:44:28;;;;;;;4.47;3.57;;;5.70;99.90;;;;;;6241559;22;20197;-90
2021/12/07 06:46:54;;;;;;;13.13;7.40;;;5.60;99.90;;;;;;6241003;23;20204;-93
2021/12/07 06:49:20;;;;;;;13.00;10.50;;;5.50;99.90;;;;;;6216797;23;20209;-93
2021/12/07 06:51:47;;;;;;;9.00;4.83;;;5.50;99.90;;;;;;6242664;22;20579;-91
2021/12/07 06:54:13;;;;;;;3.03;2.67;;;5.40;99.90;;;;;;6241749;22;20160;-93
2021/12/07 06:56:39;;;;;;;1.23;1.13;;;5.30;99.90;;;;;;6240513;23;20276;-90
2021/12/07 06:59:05;;;;;;;5.40;2.47;;;5.10;99.90;;;;;;6216229;22;20197;-90
2021/12/07 07:01:31;;;;;;;14.47;9.73;;;5.00;99.90;;;;;;6242108;22;20189;-89
2021/12/07 07:03:57;;;;;;;6.83;4.60;;;5.00;99.90;;;;;;6271171;22;20200;-89
2021/12/07 07:06:23;;;;;;;8.80;7.83;;;4.80;99.90;;;;;;6244547;23;20582;-90
2021/12/07 07:08:52;;;;;;;9.00;5.20;;;4.80;99.90;;;;;;6268139;22;20247;-87
2021/12/07 07:11:19;;;;;;;7.20;6.50;;;4.80;99.90;;;;;;6217311;22;20193;-88
2021/12/07 07:13:45;;;;;;;2.63;2.27;;;4.80;99.90;;;;;;6241616;22;20189;-91
2021/12/07 07:16:11;;;;;;;7.10;6.33;;;4.80;99.90;;;;;;6218084;22;20195;-89
2021/12/07 07:18:37;;;;;;;10.37;6.80;;;4.80;99.90;;;;;;6244014;22;20162;-90
2021/12/07 07:21:04;;;;;;;4.20;2.43;;;4.80;99.90;;;;;;6219157;22;20193;-90
2021/12/07 07:23:31;;;;;;;6.00;3.43;;;4.70;99.90;;;;;;6268642;22;20300;-90
2021/12/07 07:25:57;;;;;;;17.53;7.80;;;4.60;99.90;;;;;;6269550;22;20212;-90
2021/12/07 07:28:29;;;;;;;20.03;4.47;;;4.60;99.90;;;;;;6243073;22;20193;-90
2021/12/07 07:30:55;;;;;;;4.33;3.07;;;4.60;99.90;;;;;;6267087;22;20583;-89
2021/12/07 07:33:22;;;;;;;1.17;1.07;;;4.60;99.90;;;;;;6217530;23;20602;-89
2021/12/07 07:35:48;;;;;;;1.57;1.00;;;4.60;99.90;;;;;;6267806;22;20658;-90
2021/12/07 07:38:14;;;;;;;1.03;0.80;;;4.50;99.90;;;;;;6242496;22;20212;-90
2021/12/07 07:40:43;;;;;;;4.40;2.60;;;4.50;99.90;;;;;;6242294;22;20330;-91
2021/12/07 07:43:09;;;;;;;6.70;3.57;;;4.50;99.90;;;;;;6269367;22;20189;-90
2021/12/07 07:45:35;;;;;;;6.53;5.70;;;4.50;99.90;;;;;;6269828;22;20165;-90
2021/12/07 07:48:01;;;;;;;2.47;2.13;;;4.50;99.90;;;;;;6269293;22;20260;-90
2021/12/07 07:50:26;;;;;;;1.07;0.97;;;4.50;99.90;;;;;;6218566;23;20223;-90
2021/12/07 07:52:52;;;;;;;1.03;0.60;;;4.40;99.90;;;;;;6218446;23;20189;-90
2021/12/07 07:55:18;;;;;;;7.30;1.13;;;4.50;99.90;;;;;;6243812;22;20193;-91
2021/12/07 07:57:44;;;;;;;0.73;0.73;;;4.60;99.90;;;;;;6219009;22;20587;-90
2021/12/07 08:00:15;;;;;;;0.80;0.80;;;4.70;99.90;;;;;;6270282;22;20177;-90
2021/12/07 08:02:42;;;;;;;2.90;1.40;;;4.80;99.90;;;;;;6269875;22;20327;-90
2021/12/07 08:05:08;;;;;;;12.87;1.67;;;4.90;99.90;;;;;;6244469;22;20193;-91
2021/12/07 08:07:35;;;;;;;1.80;1.53;;;4.90;99.90;;;;;;6219969;23;20631;-91
2021/12/07 08:10:01;;;;;;;0.53;0.50;;;4.90;99.90;;;;;;6244891;22;20197;-90
2021/12/07 08:12:27;;;;;;;1.23;1.13;;;4.90;99.90;;;;;;6270376;22;20158;-90
2021/12/07 08:14:52;;;;;;;1.40;1.30;;;5.00;99.90;;;;;;6219088;23;20200;-90
2021/12/07 08:17:18;;;;;;;1.43;1.37;;;5.00;99.90;;;;;;6218980;23;20281;-90
2021/12/07 08:19:44;;;;;;;0.80;0.80;;;5.10;99.90;;;;;;6218971;23;20235;-91
2021/12/07 08:22:12;;;;;;;0.77;0.77;;;5.10;99.90;;;;;;6218566;22;20227;-90
2021/12/07 08:24:38;;;;;;;0.80;0.80;;;5.10;99.90;;;;;;6219707;22;20158;-90
2021/12/07 08:27:04;;;;;;;1.17;0.93;;;5.20;99.90;;;;;;6242932;22;20169;-90
2021/12/07 08:29:30;;;;;;;0.60;0.60;;;5.20;99.90;;;;;;6243408;22;20197;-91
2021/12/07 08:31:56;;;;;;;3.03;1.27;;;5.30;99.90;;;;;;6243071;22;20235;-90
2021/12/07 08:34:22;;;;;;;2.67;2.10;;;5.30;99.90;;;;;;6217830;22;20199;-90
2021/12/07 08:36:47;;;;;;;0.60;0.60;;;5.30;99.90;;;;;;6243315;22;20188;-89
2021/12/07 08:39:15;;;;;;;0.20;0.20;;;5.40;99.90;;;;;;6219152;23;20165;-89
2021/12/07 08:41:41;;;;;;;0.50;0.50;;;5.40;99.90;;;;;;6243448;22;20527;-90
2021/12/07 08:44:08;;;;;;;0.47;0.47;;;5.40;99.90;;;;;;6267971;22;20193;-90
2021/12/07 08:46:34;;;;;;;0.93;0.93;;;5.40;99.90;;;;;;6243434;22;20204;-90
2021/12/07 08:49:00;;;;;;;1.03;0.87;;;5.50;99.90;;;;;;6243869;22;20546;-91
2021/12/07 08:51:26;;;;;;;1.70;0.70;;;5.60;99.90;;;;;;6243074;22;20161;-90
2021/12/07 08:53:59;;;;;;;2.30;0.93;;;5.60;99.90;;;;;;6269696;22;20243;-90
2021/12/07 09:01:54;;;;;;;1.87;0.90;;;5.80;99.90;;;;;;6245135;22;20733;-90
2021/12/07 09:04:21;;;;;;;0.60;0.60;;;5.90;99.90;;;;;;6265897;22;20504;-87
2021/12/07 09:06:48;;;;;;;1.90;1.37;;;6.00;99.90;;;;;;6265364;22;20648;-88
2021/12/07 09:09:15;;;;;;;3.93;3.37;;;6.00;99.90;;;;;;6241038;23;20196;-88
2021/12/07 09:11:42;;;;;;;6.40;4.90;;;6.10;99.90;;;;;;6240598;23;20304;-89
2021/12/07 09:14:14;;;;;;;2.50;2.40;;;6.10;99.90;;;;;;6215868;22;20193;-89
2021/12/07 09:16:40;;;;;;;3.93;2.30;;;6.10;99.90;;;;;;6241365;22;20193;-88
2021/12/07 09:19:06;;;;;;;1.80;1.70;;;6.10;99.90;;;;;;6266108;22;20695;-87
2021/12/07 09:21:32;;;;;;;2.07;1.60;;;6.10;99.90;;;;;;6215009;23;20189;-89
2021/12/07 09:23:58;;;;;;;4.93;2.43;;;6.10;99.90;;;;;;6215165;22;20654;-88
2021/12/07 09:26:25;;;;;;;0.50;0.50;;;6.10;99.90;;;;;;6214763;23;20196;-88
2021/12/07 09:28:51;;;;;;;20.40;0.80;;;6.00;99.90;;;;;;6240163;23;20185;-88
2021/12/07 09:31:17;;;;;;;0.70;0.60;;;6.00;99.90;;;;;;6215163;22;20545;-89
2021/12/07 09:33:44;;;;;;;0.90;0.90;;;5.90;99.90;;;;;;6240181;22;20546;-89
2021/12/07 09:36:12;;;;;;;1.83;1.73;;;6.00;99.90;;;;;;6241873;22;20162;-88
2021/12/07 09:38:38;;;;;;;1.93;1.70;;;6.10;99.90;;;;;;6215775;23;20280;-89
2021/12/07 09:41:06;;;;;;;2.97;1.97;;;6.10;99.90;;;;;;6240255;22;20261;-88
2021/12/07 09:43:32;;;;;;;8.80;1.47;;;6.20;99.90;;;;;;6240245;22;20193;-88
2021/12/07 09:45:58;;;;;;;3.67;1.43;;;6.20;99.90;;;;;;6265928;22;20193;-91
2021/12/07 09:48:25;;;;;;;0.93;0.87;;;6.20;99.90;;;;;;6241003;23;20161;-90
2021/12/07 09:50:53;;;;;;;5.00;2.60;;;6.10;99.90;;;;;;6240266;22;20280;-88
2021/12/07 09:53:21;;;;;;;0.40;0.40;;;6.10;99.90;;;;;;6240465;23;20284;-88
2021/12/07 09:55:47;;;;;;;1.50;0.80;;;6.10;99.90;;;;;;6240246;22;20944;-90
2021/12/07 09:58:14;;;;;;;0.63;0.50;;;6.20;99.90;;;;;;6215443;23;20201;-89
2021/12/07 10:00:41;;;;;;;0.23;0.23;;;6.30;99.90;;;;;;6215652;22;20189;-90
2021/12/07 10:03:07;;;;;;;14.23;7.37;;;6.30;99.90;;;;;;6267187;22;20208;-90
2021/12/07 10:05:39;;;;;;;17.43;6.63;;;6.50;99.90;;;;;;6215684;23;20193;-89
2021/12/07 10:08:05;;;;;;;14.40;5.47;;;6.70;99.90;;;;;;6243079;22;20201;-90
2021/12/07 10:10:35;;;;;;;13.27;6.37;;;6.80;99.90;;;;;;6241326;22;20200;-90
2021/12/07 10:13:03;;;;;;;2.50;2.00;;;6.70;99.90;;;;;;6266495;22;20196;-90
2021/12/07 10:15:29;;;;;;;15.37;8.63;;;6.90;99.90;;;;;;6241648;22;20161;-90
2021/12/07 10:18:14;;;;;;;20.00;10.33;;;7.00;99.90;;;;;;6215867;23;20231;-90
2021/12/07 10:20:43;;;;;;;7.67;3.23;;;7.00;99.90;;;;;;6240859;23;20273;-90
2021/12/07 10:23:18;;;;;;;5.53;4.27;;;7.00;99.90;;;;;;6242536;22;20276;-90
2021/12/07 10:25:47;;;;;;;4.50;1.97;;;7.10;99.90;;;;;;6240560;23;20193;-90
2021/12/07 10:28:30;;;;;;;9.50;3.93;;;7.10;99.90;;;;;;6266689;22;20216;-89
2021/12/07 10:31:08;;;;;;;9.23;4.07;;;7.10;99.90;;;;;;6241606;22;20196;-90
2021/12/07 10:33:37;;;;;;;9.17;6.00;;;7.20;99.90;;;;;;6240611;23;20288;-90
2021/12/07 10:36:15;;;;;;;5.97;3.97;;;7.30;99.90;;;;;;6266699;22;20189;-89
2021/12/07 10:38:45;;;;;;;4.50;1.17;;;7.20;99.90;;;;;;6240807;23;20708;-91
2021/12/07 10:41:15;;;;;;;1.47;1.40;;;7.30;99.90;;;;;;6266965;22;20218;-89
2021/12/07 10:43:53;;;;;;;2.07;1.93;;;7.40;99.90;;;;;;6217274;22;20193;-90
2021/12/07 10:46:39;;;;;;;2.50;2.30;;;7.50;99.90;;;;;;6243204;22;20193;-90
2021/12/07 10:49:29;;;;;;;1.33;1.33;;;7.60;99.90;;;;;;6241022;23;20197;-89
2021/12/07 10:52:16;;;;;;;1.83;1.67;;;7.50;99.90;;;;;;6241168;22;20142;-91
2021/12/07 10:54:50;;;;;;;2.23;2.03;;;7.60;99.90;;;;;;6241881;22;20170;-89
2021/12/07 10:57:17;;;;;;;2.97;2.73;;;7.60;99.90;;;;;;6235487;23;20141;-91
2021/12/07 10:59:57;;;;;;;12.97;4.03;;;7.60;99.90;;;;;;6232040;23;21055;-90
2021/12/07 11:02:27;;;;;;;2.77;2.10;;;7.70;99.90;;;;;;6263352;22;20197;-91
2021/12/07 11:04:53;;;;;;;4.33;3.93;;;7.80;99.90;;;;;;6233606;22;20185;-90
2021/12/07 11:07:19;;;;;;;1.47;1.37;;;7.80;99.90;;;;;;6235254;22;20193;-88
2021/12/07 11:10:04;;;;;;;1.60;1.50;;;7.80;99.90;;;;;;6239943;22;20174;-90
2021/12/07 11:12:41;;;;;;;2.30;1.23;;;7.80;99.90;;;;;;6241271;23;20570;-91
2021/12/07 11:15:14;;;;;;;1.57;1.47;;;7.80;99.90;;;;;;6266630;22;20173;-89
2021/12/07 11:17:40;;;;;;;1.07;0.83;;;7.70;99.90;;;;;;6265501;22;20196;-91
2021/12/07 11:20:07;;;;;;;1.40;1.30;;;7.70;99.90;;;;;;6265205;22;20197;-90
2021/12/07 11:22:37;;;;;;;2.17;1.70;;;7.70;99.90;;;;;;6265180;22;20196;-89
2021/12/07 11:25:05;;;;;;;0.93;0.87;;;7.60;99.90;;;;;;6265757;22;20268;-91
2021/12/07 11:30:20;;;;;;;1.20;0.80;;;7.70;99.90;;;;;;6240801;23;20231;-89
2021/12/07 11:32:56;;;;;;;6.03;2.83;;;7.70;99.90;;;;;;6265958;22;20213;-89
2021/12/07 11:35:35;;;;;;;0.90;0.90;;;7.80;99.90;;;;;;6241048;22;20207;-92
2021/12/07 11:38:06;;;;;;;0.57;0.53;;;7.90;99.90;;;;;;6265630;22;20197;-90
2021/12/07 11:40:37;;;;;;;2.07;0.97;;;7.90;99.90;;;;;;6239805;22;20212;-89
2021/12/07 11:43:16;;;;;;;0.90;0.90;;;8.00;99.90;;;;;;6265009;22;20193;-89
2021/12/07 11:45:44;;;;;;;1.00;1.00;;;8.00;99.90;;;;;;6264866;22;20149;-89
2021/12/07 11:48:10;;;;;;;8.90;1.03;;;8.10;99.90;;;;;;6265267;22;20185;-90
2021/12/07 11:50:48;;;;;;;1.30;1.20;;;8.10;99.90;;;;;;6239309;22;20193;-89
2021/12/07 11:53:21;;;;;;;1.20;1.10;;;8.10;99.90;;;;;;6264949;22;20287;-93
2021/12/07 11:55:51;;;;;;;0.60;0.60;;;8.10;99.90;;;;;;6264712;22;20193;-90
2021/12/07 11:58:18;;;;;;;5.73;1.67;;;8.20;99.90;;;;;;6264643;22;20271;-90
2021/12/07 12:00:50;;;;;;;6.67;1.57;;;8.30;99.90;;;;;;6239352;22;20531;-91
2021/12/07 12:03:22;;;;;;;3.60;0.87;;;8.30;99.90;;;;;;6265397;22;20636;-90
2021/12/07 12:05:49;;;;;;;4.93;1.47;;;8.50;99.90;;;;;;6239050;22;20507;-89
2021/12/07 12:12:13;;;;;;;1.07;0.97;;;8.70;99.90;;;;;;6238312;22;20204;-90
2021/12/07 12:14:48;;;;;;;5.00;1.13;;;8.60;99.90;;;;;;6240699;23;20504;-89
2021/12/07 12:17:35;;;;;;;1.57;1.47;;;8.70;99.90;;;;;;6238560;23;20196;-89
2021/12/07 12:20:10;;;;;;;3.97;1.67;;;8.60;99.90;;;;;;6239245;23;20208;-89
2021/12/07 12:22:38;;;;;;;6.37;1.30;;;8.50;99.90;;;;;;6238695;23;20338;-89
2021/12/07 12:25:07;;;;;;;4.63;1.90;;;8.40;99.90;;;;;;6239163;23;20197;-89
2021/12/07 12:27:35;;;;;;;3.90;1.37;;;8.40;99.90;;;;;;6265216;22;20312;-89
2021/12/07 12:30:22;;;;;;;2.13;1.63;;;8.30;99.90;;;;;;6213037;23;20732;-90
2021/12/07 12:32:54;;;;;;;1.57;1.47;;;8.40;99.90;;;;;;6238353;23;20223;-88
2021/12/07 12:35:27;;;;;;;1.33;1.17;;;8.40;99.90;;;;;;6239240;23;21043;-90
2021/12/07 12:37:52;;;;;;;0.90;0.90;;;8.30;99.90;;;;;;6239125;23;20534;-90
2021/12/07 12:40:26;;;;;;;0.80;0.80;;;8.30;99.90;;;;;;6212974;23;20288;-91
2021/12/07 12:42:55;;;;;;;2.10;1.43;;;8.30;99.90;;;;;;6264108;22;20929;-89
2021/12/07 12:45:28;;;;;;;2.80;1.13;;;8.30;99.90;;;;;;6265201;22;20184;-90
2021/12/07 12:47:58;;;;;;;1.17;1.17;;;8.30;99.90;;;;;;6264669;22;20533;-90
2021/12/07 12:50:27;;;;;;;5.53;1.03;;;8.30;99.90;;;;;;6264962;22;20193;-90
2021/12/07 12:52:57;;;;;;;0.80;0.50;;;8.20;99.90;;;;;;6238887;23;20196;-90
2021/12/07 12:55:31;;;;;;;1.20;1.10;;;8.20;99.90;;;;;;6240487;22;20193;-94
2021/12/07 12:57:57;;;;;;;2.53;1.30;;;8.10;99.90;;;;;;6240443;22;21280;-91
2021/12/07 13:00:24;;;;;;;1.40;0.80;;;8.10;99.90;;;;;;6240624;22;20177;-92
2021/12/07 13:02:54;;;;;;;4.47;1.23;;;8.10;99.90;;;;;;6215151;23;20225;-90
2021/12/07 13:05:34;;;;;;;0.37;0.37;;;8.10;99.90;;;;;;6265657;22;20284;-90
2021/12/07 13:08:15;;;;;;;5.30;1.07;;;8.10;99.90;;;;;;6266420;22;20216;-90
2021/12/07 13:10:59;;;;;;;2.87;1.60;;;8.00;99.90;;;;;;6265085;22;20197;-91
2021/12/07 13:13:34;;;;;;;3.83;1.83;;;8.00;99.90;;;;;;6265647;22;20229;-93
2021/12/07 13:16:16;;;;;;;2.53;1.03;;;7.90;99.90;;;;;;6266047;22;20220;-90
2021/12/07 13:18:43;;;;;;;1.70;0.93;;;7.90;99.90;;;;;;6240371;22;20160;-90
2021/12/07 13:21:24;;;;;;;7.53;1.43;;;7.80;99.90;;;;;;6240453;22;20272;-90
2021/12/07 13:24:23;;;;;;;3.53;0.83;;;7.80;99.90;;;;;;6240920;23;20197;-90
2021/12/07 13:26:54;;;;;;;0.83;0.83;;;7.70;99.90;;;;;;6264633;22;20201;-92
2021/12/07 13:29:23;;;;;;;2.17;1.37;;;7.70;99.90;;;;;;6240455;22;20669;-90
2021/12/07 13:31:56;;;;;;;2.73;1.70;;;7.60;99.90;;;;;;6240125;22;20208;-90
2021/12/07 13:34:32;;;;;;;0.90;0.90;;;7.60;99.90;;;;;;6239888;22;20269;-89
2021/12/07 13:36:59;;;;;;;0.77;0.57;;;7.50;99.90;;;;;;6265299;22;20262;-91
2021/12/07 13:39:24;;;;;;;5.20;0.93;;;7.50;99.90;;;;;;6240516;23;20874;-89
2021/12/07 13:42:02;;;;;;;2.30;2.00;;;7.40;99.90;;;;;;6243570;23;20197;-90
2021/12/07 13:44:34;;;;;;;0.43;0.43;;;7.40;99.90;;;;;;6269741;22;20529;-92
2021/12/07 13:47:07;;;;;;;1.53;1.43;;;7.40;99.90;;;;;;6246096;22;20590;-89
2021/12/07 13:49:37;;;;;;;1.50;1.10;;;7.40;99.90;;;;;;6270734;22;20196;-90
2021/12/07 13:52:19;;;;;;;2.63;1.87;;;7.40;99.90;;;;;;6245514;22;20251;-90
2021/12/07 13:54:49;;;;;;;0.90;0.90;;;7.40;99.90;;;;;;6269943;22;20165;-92
2021/12/07 13:57:20;;;;;;;1.63;1.00;;;7.30;99.90;;;;;;6270825;22;20149;-89
2021/12/07 14:00:09;;;;;;;2.00;0.97;;;7.30;99.90;;;;;;6269827;22;20247;-89
2021/12/07 14:02:36;;;;;;;1.03;1.03;;;7.20;99.90;;;;;;6245264;22;20654;-89
2021/12/07 14:05:08;;;;;;;1.67;0.83;;;7.10;99.90;;;;;;6244140;22;20219;-89
2021/12/07 14:07:36;;;;;;;1.27;0.80;;;7.10;99.90;;;;;;6243649;23;20201;-89
2021/12/07 14:10:09;;;;;;;1.10;1.03;;;7.00;99.90;;;;;;6218351;23;20304;-89
2021/12/07 14:12:35;;;;;;;2.03;1.53;;;6.90;99.90;;;;;;6269897;22;20279;-90
2021/12/07 14:15:14;;;;;;;0.60;0.60;;;6.90;99.90;;;;;;6218826;23;20240;-91
2021/12/07 14:17:50;;;;;;;3.30;0.73;;;6.80;99.90;;;;;;6244109;23;20204;-90
2021/12/07 14:20:39;;;;;;;2.63;2.30;;;6.80;99.90;;;;;;6269411;22;20204;-89
2021/12/07 14:23:20;;;;;;;2.10;1.97;;;6.70;99.90;;;;;;6268772;22;20282;-89
2021/12/07 14:25:52;;;;;;;1.43;1.20;;;6.70;99.90;;;;;;6243437;23;20193;-89
2021/12/07 14:28:36;;;;;;;0.73;0.73;;;6.60;99.90;;;;;;6270128;22;20216;-89
2021/12/07 14:31:22;;;;;;;6.80;1.63;;;6.50;99.90;;;;;;6245909;22;20251;-90
2021/12/07 14:34:04;;;;;;;1.10;1.10;;;6.40;99.90;;;;;;6243376;22;20640;-89
2021/12/07 14:36:45;;;;;;;1.10;1.10;;;6.40;99.90;;;;;;6245036;23;20144;-90
2021/12/07 14:39:18;;;;;;;1.47;1.37;;;6.30;99.90;;;;;;6270333;22;20165;-90
2021/12/07 14:41:50;;;;;;;2.17;2.00;;;6.40;99.90;;;;;;6269925;22;20208;-89
2021/12/07 14:44:24;;;;;;;1.70;0.83;;;6.30;99.90;;;;;;6270564;22;20276;-90
2021/12/07 14:46:52;;;;;;;1.37;1.10;;;6.20;99.90;;;;;;6256491;22;20191;-91
2021/12/07 14:49:18;;;;;;;1.20;1.13;;;6.10;99.90;;;;;;6206901;23;20266;-90
2021/12/07 14:51:45;;;;;;;2.43;1.60;;;6.10;99.90;;;;;;6240552;22;20166;-90